createdAt,value
2017-02-24T00:00:46.939Z,4
2017-02-24T00:01:56.712Z,0
2017-02-24T00:03:06.033Z,0
2017-02-24T00:04:15.814Z,4
2017-02-24T00:05:25.560Z,4
2017-02-24T00:06:35.383Z,4
2017-02-24T00:07:46.246Z,0
2017-02-24T00:08:55.559Z,0
2017-02-24T00:10:04.900Z,0
2017-02-24T00:11:14.214Z,0
2017-02-24T00:12:23.579Z,0
2017-02-24T00:13:32.892Z,0
2017-02-24T00:14:42.211Z,0
2017-02-24T00:15:51.539Z,0
2017-02-24T00:17:00.863Z,0
2017-02-24T00:18:11.121Z,0
2017-02-24T00:19:20.442Z,0
2017-02-24T00:20:29.781Z,0
2017-02-24T00:21:39.976Z,0
2017-02-24T00:22:49.305Z,0
2017-02-24T00:23:58.696Z,0
2017-02-24T00:25:08.031Z,0
2017-02-24T00:26:17.365Z,0
2017-02-24T00:27:27.561Z,0
2017-02-24T00:28:37.315Z,0
2017-02-24T00:29:47.124Z,0
2017-02-24T00:30:56.885Z,0
2017-02-24T00:32:06.184Z,0
2017-02-24T00:33:15.521Z,0
2017-02-24T00:34:24.849Z,0
2017-02-24T00:35:34.241Z,0
2017-02-24T00:36:43.587Z,0
2017-02-24T00:37:53.360Z,0
2017-02-24T00:39:02.693Z,0
2017-02-24T00:40:12.034Z,0
2017-02-24T00:41:21.839Z,0
2017-02-24T00:42:32.045Z,0
2017-02-24T00:43:41.382Z,0
2017-02-24T00:44:51.588Z,0
2017-02-24T00:46:01.347Z,0
2017-02-24T00:47:11.194Z,0
2017-02-24T00:48:20.527Z,0
2017-02-24T00:49:29.856Z,0
2017-02-24T00:50:39.181Z,0
2017-02-24T00:51:48.958Z,0
2017-02-24T00:52:58.771Z,0
2017-02-24T00:54:08.992Z,0
2017-02-24T00:55:18.749Z,0
2017-02-24T00:56:28.503Z,0
2017-02-24T00:57:38.248Z,0
2017-02-24T00:58:47.612Z,0
2017-02-24T00:59:56.938Z,0
2017-02-24T01:01:06.272Z,0
2017-02-24T01:02:15.617Z,0
2017-02-24T01:03:25.368Z,0
2017-02-24T01:04:35.178Z,0
2017-02-24T01:05:44.513Z,0
2017-02-24T01:06:54.265Z,0
2017-02-24T01:08:03.590Z,0
2017-02-24T01:09:13.344Z,0
2017-02-24T01:10:22.721Z,0
2017-02-24T01:11:32.037Z,0
2017-02-24T01:12:41.402Z,0
2017-02-24T01:13:50.728Z,0
2017-02-24T01:15:00.498Z,0
2017-02-24T01:16:10.318Z,0
2017-02-24T01:17:20.076Z,0
2017-02-24T01:18:29.857Z,0
2017-02-24T01:19:39.630Z,0
2017-02-24T01:20:48.958Z,0
2017-02-24T01:21:58.780Z,0
2017-02-24T01:23:08.533Z,0
2017-02-24T01:24:17.855Z,0
2017-02-24T01:25:27.188Z,0
2017-02-24T01:26:36.523Z,0
2017-02-24T01:27:46.330Z,0
2017-02-24T01:28:55.652Z,0
2017-02-24T01:30:04.989Z,0
2017-02-24T01:31:14.341Z,0
2017-02-24T01:32:24.115Z,0
2017-02-24T01:33:33.940Z,0
2017-02-24T01:34:43.266Z,0
2017-02-24T01:35:53.033Z,0
2017-02-24T01:37:02.804Z,0
2017-02-24T01:38:12.128Z,0
2017-02-24T01:39:21.522Z,0
2017-02-24T01:40:30.831Z,0
2017-02-24T01:41:40.156Z,0
2017-02-24T01:42:49.522Z,0
2017-02-24T01:43:58.845Z,0
2017-02-24T01:45:08.857Z,0
2017-02-24T01:46:18.173Z,0
2017-02-24T01:47:27.486Z,0
2017-02-24T01:48:36.807Z,0
2017-02-24T01:49:46.128Z,0
2017-02-24T01:50:55.946Z,0
2017-02-24T01:52:05.279Z,0
2017-02-24T01:53:15.504Z,0
2017-02-24T01:54:25.266Z,0
2017-02-24T01:55:35.046Z,0
2017-02-24T01:56:44.875Z,0
2017-02-24T01:57:54.204Z,0
2017-02-24T01:59:03.988Z,0
2017-02-24T02:00:13.747Z,0
2017-02-24T02:01:23.067Z,0
2017-02-24T02:02:33.321Z,0
2017-02-24T02:03:43.071Z,0
2017-02-24T02:04:53.287Z,0
2017-02-24T02:06:02.616Z,0
2017-02-24T02:07:11.938Z,0
2017-02-24T02:08:21.734Z,0
2017-02-24T02:09:31.496Z,0
2017-02-24T02:10:41.253Z,0
2017-02-24T02:11:50.613Z,0
2017-02-24T02:13:00.379Z,0
2017-02-24T02:14:09.756Z,0
2017-02-24T02:15:19.096Z,0
2017-02-24T02:16:28.858Z,0
2017-02-24T02:17:38.172Z,0
2017-02-24T02:18:47.485Z,0
2017-02-24T02:19:56.851Z,0
2017-02-24T02:21:06.196Z,0
2017-02-24T02:22:15.951Z,0
2017-02-24T02:23:26.158Z,0
2017-02-24T02:24:35.483Z,0
2017-02-24T02:25:45.311Z,0
2017-02-24T02:26:55.089Z,0
2017-02-24T02:28:04.834Z,0
2017-02-24T02:29:15.052Z,0
2017-02-24T02:30:24.857Z,0
2017-02-24T02:31:34.226Z,0
2017-02-24T02:32:43.999Z,0
2017-02-24T02:33:53.772Z,0
2017-02-24T02:35:03.524Z,0
2017-02-24T02:36:12.853Z,0
2017-02-24T02:37:23.546Z,0
2017-02-24T02:38:33.736Z,0
2017-02-24T02:39:43.042Z,0
2017-02-24T02:40:53.257Z,0
2017-02-24T02:42:02.580Z,0
2017-02-24T02:43:11.953Z,0
2017-02-24T02:44:21.720Z,0
2017-02-24T02:45:31.027Z,0
2017-02-24T02:46:40.333Z,0
2017-02-24T02:47:49.660Z,0
2017-02-24T02:48:59.495Z,0
2017-02-24T02:50:08.803Z,0
2017-02-24T02:51:19.009Z,0
2017-02-24T02:52:28.341Z,0
2017-02-24T02:53:38.531Z,0
2017-02-24T02:54:47.915Z,0
2017-02-24T02:55:58.154Z,0
2017-02-24T02:57:07.890Z,0
2017-02-24T02:58:17.239Z,0
2017-02-24T02:59:27.432Z,0
2017-02-24T03:00:37.231Z,0
2017-02-24T03:01:46.556Z,0
2017-02-24T03:02:55.872Z,0
2017-02-24T03:04:05.206Z,0
2017-02-24T03:05:14.527Z,0
2017-02-24T03:06:23.915Z,0
2017-02-24T03:07:33.690Z,0
2017-02-24T03:08:43.453Z,0
2017-02-24T03:09:53.210Z,0
2017-02-24T03:11:02.969Z,0
2017-02-24T03:12:12.336Z,0
2017-02-24T03:13:21.660Z,0
2017-02-24T03:14:30.987Z,0
2017-02-24T03:15:41.182Z,0
2017-02-24T03:16:50.937Z,0
2017-02-24T03:18:00.732Z,0
2017-02-24T03:19:11.353Z,0
2017-02-24T03:20:20.687Z,0
2017-02-24T03:21:30.464Z,0
2017-02-24T03:22:39.777Z,0
2017-02-24T03:23:49.180Z,0
2017-02-24T03:24:59.409Z,0
2017-02-24T03:26:09.600Z,0
2017-02-24T03:27:18.912Z,0
2017-02-24T03:28:29.119Z,0
2017-02-24T03:29:38.499Z,0
2017-02-24T03:30:48.679Z,0
2017-02-24T03:31:58.876Z,0
2017-02-24T03:33:09.075Z,0
2017-02-24T03:34:19.719Z,0
2017-02-24T03:35:29.072Z,0
2017-02-24T03:36:39.698Z,0
2017-02-24T03:37:49.448Z,0
2017-02-24T03:38:59.192Z,0
2017-02-24T03:40:09.381Z,0
2017-02-24T03:41:19.200Z,0
2017-02-24T03:42:29.393Z,0
2017-02-24T03:43:39.167Z,0
2017-02-24T03:44:49.785Z,0
2017-02-24T03:45:59.522Z,0
2017-02-24T03:47:08.879Z,0
2017-02-24T03:48:18.648Z,0
2017-02-24T03:49:28.421Z,0
2017-02-24T03:50:39.070Z,0
2017-02-24T03:51:48.832Z,0
2017-02-24T03:52:59.060Z,0
2017-02-24T03:54:08.828Z,0
2017-02-24T03:55:18.201Z,0
2017-02-24T03:56:28.394Z,0
2017-02-24T03:57:38.165Z,0
2017-02-24T03:58:47.522Z,0
2017-02-24T03:59:56.841Z,0
2017-02-24T04:01:07.467Z,0
2017-02-24T04:02:16.813Z,0
2017-02-24T04:03:27.002Z,0
2017-02-24T04:04:36.813Z,0
2017-02-24T04:05:47.010Z,0
2017-02-24T04:06:57.216Z,0
2017-02-24T04:08:06.570Z,0
2017-02-24T04:09:17.187Z,0
2017-02-24T04:10:26.600Z,0
2017-02-24T04:11:35.953Z,0
2017-02-24T04:12:45.722Z,0
2017-02-24T04:13:55.470Z,0
2017-02-24T04:15:05.236Z,0
2017-02-24T04:16:14.628Z,0
2017-02-24T04:17:24.826Z,0
2017-02-24T04:18:34.599Z,0
2017-02-24T04:19:44.355Z,0
2017-02-24T04:20:54.549Z,0
2017-02-24T04:22:04.554Z,0
2017-02-24T04:23:14.739Z,0
2017-02-24T04:24:24.069Z,0
2017-02-24T04:25:33.829Z,0
2017-02-24T04:26:43.137Z,0
2017-02-24T04:27:52.936Z,0
2017-02-24T04:29:02.249Z,0
2017-02-24T04:30:11.998Z,0
2017-02-24T04:31:21.315Z,0
2017-02-24T04:32:31.069Z,0
2017-02-24T04:33:40.442Z,0
2017-02-24T04:34:49.752Z,0
2017-02-24T04:35:59.076Z,0
2017-02-24T04:37:09.250Z,0
2017-02-24T04:38:19.011Z,0
2017-02-24T04:39:28.844Z,0
2017-02-24T04:40:38.146Z,0
2017-02-24T04:41:47.490Z,0
2017-02-24T04:42:57.234Z,0
2017-02-24T04:44:07.453Z,0
2017-02-24T04:45:17.708Z,0
2017-02-24T04:46:27.447Z,0
2017-02-24T04:47:36.768Z,0
2017-02-24T04:48:46.538Z,0
2017-02-24T04:49:55.843Z,0
2017-02-24T04:51:05.660Z,0
2017-02-24T04:52:15.016Z,0
2017-02-24T04:53:25.215Z,0
2017-02-24T04:54:34.966Z,0
2017-02-24T04:55:45.595Z,0
2017-02-24T04:56:55.398Z,0
2017-02-24T04:58:04.707Z,0
2017-02-24T04:59:15.332Z,0
2017-02-24T05:00:24.662Z,0
2017-02-24T05:01:34.449Z,0
2017-02-24T05:02:43.822Z,0
2017-02-24T05:03:53.133Z,0
2017-02-24T05:05:02.881Z,0
2017-02-24T05:06:12.212Z,0
2017-02-24T05:07:21.533Z,0
2017-02-24T05:08:31.348Z,0
2017-02-24T05:09:41.087Z,0
2017-02-24T05:10:50.851Z,0
2017-02-24T05:12:01.026Z,0
2017-02-24T05:13:11.225Z,0
2017-02-24T05:14:21.476Z,0
2017-02-24T05:15:31.680Z,0
2017-02-24T05:16:41.434Z,0
2017-02-24T05:17:50.743Z,0
2017-02-24T05:19:00.512Z,0
2017-02-24T05:20:10.304Z,0
2017-02-24T05:21:20.537Z,0
2017-02-24T05:22:30.735Z,0
2017-02-24T05:23:40.501Z,0
2017-02-24T05:24:50.706Z,0
2017-02-24T05:26:00.512Z,0
2017-02-24T05:27:10.709Z,0
2017-02-24T05:28:20.018Z,0
2017-02-24T05:29:29.343Z,0
2017-02-24T05:30:39.096Z,0
2017-02-24T05:31:48.466Z,0
2017-02-24T05:32:58.215Z,0
2017-02-24T05:34:07.543Z,0
2017-02-24T05:35:16.857Z,0
2017-02-24T05:36:27.073Z,0
2017-02-24T05:37:36.446Z,0
2017-02-24T05:38:46.199Z,0
2017-02-24T05:39:56.398Z,0
2017-02-24T05:41:06.135Z,0
2017-02-24T05:42:15.879Z,0
2017-02-24T05:43:26.558Z,0
2017-02-24T05:44:36.303Z,0
2017-02-24T05:45:46.499Z,0
2017-02-24T05:46:56.678Z,0
2017-02-24T05:48:06.434Z,0
2017-02-24T05:49:16.248Z,0
2017-02-24T05:50:26.450Z,0
2017-02-24T05:51:36.205Z,0
2017-02-24T05:52:46.820Z,0
2017-02-24T05:53:56.573Z,4
2017-02-24T05:55:06.419Z,0
2017-02-24T05:56:15.756Z,0
2017-02-24T05:57:26.421Z,4
2017-02-24T05:58:36.206Z,0
2017-02-24T05:59:46.422Z,8
2017-02-24T06:00:56.213Z,4
2017-02-24T06:02:05.971Z,4
2017-02-24T06:03:15.731Z,4
2017-02-24T06:04:25.067Z,8
2017-02-24T06:05:35.262Z,8
2017-02-24T06:06:44.643Z,12
2017-02-24T06:07:53.992Z,8
2017-02-24T06:09:03.768Z,8
2017-02-24T06:10:13.969Z,8
2017-02-24T06:11:23.724Z,8
2017-02-24T06:12:33.553Z,16
2017-02-24T06:13:42.870Z,16
2017-02-24T06:14:53.494Z,16
2017-02-24T06:16:03.275Z,16
2017-02-24T06:17:13.470Z,20
2017-02-24T06:18:22.822Z,32
2017-02-24T06:19:33.013Z,32
2017-02-24T06:20:42.350Z,24
2017-02-24T06:21:52.109Z,20
2017-02-24T06:23:01.888Z,28
2017-02-24T06:24:11.258Z,36
2017-02-24T06:25:21.006Z,44
2017-02-24T06:26:30.370Z,68
2017-02-24T06:27:40.117Z,84
2017-02-24T06:28:49.882Z,112
2017-02-24T06:29:59.688Z,132
2017-02-24T06:31:09.872Z,140
2017-02-24T06:32:19.189Z,152
2017-02-24T06:33:29.391Z,148
2017-02-24T06:34:39.177Z,168
2017-02-24T06:35:48.633Z,200
2017-02-24T06:36:58.409Z,208
2017-02-24T06:38:08.215Z,204
2017-02-24T06:39:17.537Z,196
2017-02-24T06:40:27.765Z,220
2017-02-24T06:41:37.635Z,240
2017-02-24T06:42:46.956Z,248
2017-02-24T06:43:57.605Z,264
2017-02-24T06:45:07.796Z,268
2017-02-24T06:46:17.977Z,276
2017-02-24T06:47:27.766Z,280
2017-02-24T06:48:37.983Z,272
2017-02-24T06:49:47.723Z,312
2017-02-24T06:50:57.934Z,324
2017-02-24T06:52:08.135Z,304
2017-02-24T06:53:17.925Z,400
2017-02-24T06:54:27.252Z,444
2017-02-24T06:55:37.003Z,452
2017-02-24T06:56:46.337Z,416
2017-02-24T06:57:55.672Z,436
2017-02-24T06:59:06.034Z,412
2017-02-24T07:00:15.812Z,432
2017-02-24T07:01:25.137Z,512
2017-02-24T07:02:34.907Z,528
2017-02-24T07:03:44.236Z,532
2017-02-24T07:04:54.029Z,424
2017-02-24T07:06:04.254Z,364
2017-02-24T07:07:14.027Z,384
2017-02-24T07:08:23.389Z,428
2017-02-24T07:09:33.125Z,564
2017-02-24T07:10:42.929Z,524
2017-02-24T07:11:52.680Z,532
2017-02-24T07:13:01.997Z,564
2017-02-24T07:14:11.319Z,536
2017-02-24T07:15:21.531Z,540
2017-02-24T07:16:30.915Z,548
2017-02-24T07:17:41.546Z,560
2017-02-24T07:18:50.855Z,556
2017-02-24T07:20:00.605Z,692
2017-02-24T07:21:11.230Z,704
2017-02-24T07:22:21.043Z,768
2017-02-24T07:23:30.784Z,980
2017-02-24T07:24:40.544Z,1004
2017-02-24T07:25:50.297Z,884
2017-02-24T07:27:00.496Z,916
2017-02-24T07:28:09.861Z,828
2017-02-24T07:29:19.623Z,652
2017-02-24T07:30:30.086Z,620
2017-02-24T07:31:40.090Z,564
2017-02-24T07:32:49.406Z,576
2017-02-24T07:33:58.755Z,772
2017-02-24T07:35:09.367Z,596
2017-02-24T07:36:19.569Z,552
2017-02-24T07:37:28.927Z,508
2017-02-24T07:38:39.111Z,484
2017-02-24T07:39:48.493Z,564
2017-02-24T07:40:58.262Z,552
2017-02-24T07:42:08.447Z,584
2017-02-24T07:43:17.768Z,528
2017-02-24T07:44:27.081Z,620
2017-02-24T07:45:36.883Z,788
2017-02-24T07:46:46.271Z,1024
2017-02-24T07:47:56.074Z,952
2017-02-24T07:49:05.412Z,1028
2017-02-24T07:50:15.171Z,1068
2017-02-24T07:51:30.421Z,1172
2017-02-24T07:52:41.729Z,852
2017-02-24T07:53:51.927Z,676
2017-02-24T07:55:01.681Z,616
2017-02-24T07:56:11.025Z,984
2017-02-24T07:57:20.393Z,940
2017-02-24T07:58:30.140Z,1028
2017-02-24T07:59:40.361Z,1140
2017-02-24T08:00:50.123Z,1324
2017-02-24T08:01:59.442Z,1500
2017-02-24T08:03:09.281Z,1232
2017-02-24T08:04:19.054Z,1440
2017-02-24T08:05:28.796Z,1124
2017-02-24T08:06:38.108Z,900
2017-02-24T08:07:47.860Z,896
2017-02-24T08:08:59.007Z,1024
2017-02-24T08:10:08.767Z,1292
2017-02-24T08:11:18.518Z,1368
2017-02-24T08:12:27.850Z,1176
2017-02-24T08:13:37.615Z,1028
2017-02-24T08:14:46.973Z,968
2017-02-24T08:15:56.761Z,1164
2017-02-24T08:17:06.522Z,1064
2017-02-24T08:18:16.746Z,1344
2017-02-24T08:19:26.499Z,1884
2017-02-24T08:20:36.315Z,2052
2017-02-24T08:21:46.944Z,2224
2017-02-24T08:22:56.698Z,2068
2017-02-24T08:24:06.014Z,1620
2017-02-24T08:25:15.771Z,1784
2017-02-24T08:26:25.141Z,1956
2017-02-24T08:27:35.346Z,1732
2017-02-24T08:28:44.671Z,1832
2017-02-24T08:29:53.984Z,1352
2017-02-24T08:31:03.742Z,1312
2017-02-24T08:32:13.139Z,1292
2017-02-24T08:33:22.908Z,1596
2017-02-24T08:34:32.665Z,2116
2017-02-24T08:35:41.974Z,2292
2017-02-24T08:36:51.731Z,2220
2017-02-24T08:38:01.532Z,2120
2017-02-24T08:39:10.858Z,1868
2017-02-24T08:40:20.177Z,1436
2017-02-24T08:41:29.928Z,1200
2017-02-24T08:42:39.233Z,2872
2017-02-24T08:43:49.478Z,2028
2017-02-24T08:44:59.243Z,1944
2017-02-24T08:46:09.873Z,1952
2017-02-24T08:47:19.210Z,1888
2017-02-24T08:48:29.411Z,2024
2017-02-24T08:49:38.799Z,1940
2017-02-24T08:50:48.109Z,2376
2017-02-24T08:51:57.873Z,1880
2017-02-24T08:53:08.496Z,1456
2017-02-24T08:54:17.843Z,1168
2017-02-24T08:55:28.626Z,1112
2017-02-24T08:56:37.955Z,2236
2017-02-24T08:57:48.144Z,1408
2017-02-24T08:58:57.898Z,1608
2017-02-24T09:00:07.229Z,1240
2017-02-24T09:01:17.051Z,1212
2017-02-24T09:02:26.381Z,1288
2017-02-24T09:03:36.586Z,1128
2017-02-24T09:04:45.902Z,1140
2017-02-24T09:05:55.668Z,1592
2017-02-24T09:07:05.050Z,1408
2017-02-24T09:08:14.395Z,1464
2017-02-24T09:09:24.154Z,2160
2017-02-24T09:10:34.349Z,2908
2017-02-24T09:11:43.657Z,2976
2017-02-24T09:12:54.324Z,3364
2017-02-24T09:14:04.095Z,3676
2017-02-24T09:15:13.860Z,3892
2017-02-24T09:16:24.046Z,3876
2017-02-24T09:17:33.839Z,3772
2017-02-24T09:18:43.189Z,3720
2017-02-24T09:19:52.964Z,3276
2017-02-24T09:21:02.278Z,3584
2017-02-24T09:22:12.071Z,3304
2017-02-24T09:23:21.441Z,3552
2017-02-24T09:24:31.247Z,3500
2017-02-24T09:25:40.568Z,3692
2017-02-24T09:26:50.322Z,4032
2017-02-24T09:27:59.634Z,3756
2017-02-24T09:29:08.969Z,4120
2017-02-24T09:30:18.339Z,3832
2017-02-24T09:31:28.545Z,4044
2017-02-24T09:32:38.311Z,4044
2017-02-24T09:33:48.072Z,4588
2017-02-24T09:34:57.818Z,4300
2017-02-24T09:36:07.643Z,4024
2017-02-24T09:37:17.843Z,3604
2017-02-24T09:38:28.480Z,3700
2017-02-24T09:39:38.242Z,4152
2017-02-24T09:40:48.867Z,3284
2017-02-24T09:41:59.121Z,3232
2017-02-24T09:43:08.909Z,2904
2017-02-24T09:44:18.239Z,3108
2017-02-24T09:45:28.856Z,3492
2017-02-24T09:46:38.169Z,3404
2017-02-24T09:47:47.554Z,3732
2017-02-24T09:48:57.307Z,4148
2017-02-24T09:50:06.623Z,3348
2017-02-24T09:51:15.966Z,2760
2017-02-24T09:52:26.178Z,3268
2017-02-24T09:53:35.580Z,4256
2017-02-24T09:54:45.327Z,3400
2017-02-24T09:55:55.946Z,4012
2017-02-24T09:57:06.139Z,5792
2017-02-24T09:58:16.339Z,4596
2017-02-24T09:59:26.145Z,5000
2017-02-24T10:00:35.465Z,4332
2017-02-24T10:01:45.644Z,4396
2017-02-24T10:02:55.453Z,2732
2017-02-24T10:04:05.208Z,2404
2017-02-24T10:05:15.019Z,3068
2017-02-24T10:06:24.338Z,4232
2017-02-24T10:07:34.531Z,3668
2017-02-24T10:08:43.857Z,4232
2017-02-24T10:09:53.603Z,3112
2017-02-24T10:11:03.112Z,3640
2017-02-24T10:12:13.316Z,4000
2017-02-24T10:13:23.065Z,4204
2017-02-24T10:14:32.812Z,2856
2017-02-24T10:15:42.132Z,6244
2017-02-24T10:16:51.926Z,2384
2017-02-24T10:18:01.231Z,4256
2017-02-24T10:19:11.420Z,4944
2017-02-24T10:20:21.194Z,5120
2017-02-24T10:21:30.509Z,2016
2017-02-24T10:22:40.756Z,6236
2017-02-24T10:23:50.949Z,4876
2017-02-24T10:25:00.721Z,5180
2017-02-24T10:26:10.068Z,6420
2017-02-24T10:27:19.389Z,3580
2017-02-24T10:28:28.754Z,3384
2017-02-24T10:29:38.509Z,4540
2017-02-24T10:30:47.832Z,2312
2017-02-24T10:31:57.605Z,2328
2017-02-24T10:33:06.923Z,4292
2017-02-24T10:34:17.168Z,6248
2017-02-24T10:35:26.488Z,3768
2017-02-24T10:36:35.809Z,9464
2017-02-24T10:37:46.011Z,5956
2017-02-24T10:38:55.780Z,5348
2017-02-24T10:40:06.061Z,7376
2017-02-24T10:41:16.282Z,3796
2017-02-24T10:42:26.492Z,7900
2017-02-24T10:43:35.809Z,7552
2017-02-24T10:44:45.168Z,5312
2017-02-24T10:45:55.415Z,6924
2017-02-24T10:47:04.731Z,7448
2017-02-24T10:48:14.965Z,8240
2017-02-24T10:49:24.737Z,10296
2017-02-24T10:50:34.503Z,5368
2017-02-24T10:51:44.300Z,3200
2017-02-24T10:52:53.649Z,3420
2017-02-24T10:54:03.841Z,7144
2017-02-24T10:55:14.039Z,6948
2017-02-24T10:56:23.349Z,4368
2017-02-24T10:57:32.702Z,6392
2017-02-24T10:58:42.896Z,6904
2017-02-24T10:59:52.665Z,1912
2017-02-24T11:01:01.987Z,4776
2017-02-24T11:02:11.755Z,4460
2017-02-24T11:03:21.560Z,2620
2017-02-24T11:04:30.877Z,5440
2017-02-24T11:05:40.639Z,3528
2017-02-24T11:06:49.999Z,4552
2017-02-24T11:08:00.665Z,4196
2017-02-24T11:09:10.913Z,7788
2017-02-24T11:10:20.668Z,6060
2017-02-24T11:11:30.013Z,5404
2017-02-24T11:12:39.781Z,4636
2017-02-24T11:13:49.984Z,3280
2017-02-24T11:14:59.840Z,2772
2017-02-24T11:16:09.210Z,2680
2017-02-24T11:17:18.971Z,2768
2017-02-24T11:18:28.284Z,2720
2017-02-24T11:19:38.077Z,1804
2017-02-24T11:20:47.595Z,1468
2017-02-24T11:21:57.362Z,1176
2017-02-24T11:23:07.123Z,1416
2017-02-24T11:24:17.326Z,1988
2017-02-24T11:25:26.635Z,1880
2017-02-24T11:26:36.548Z,2308
2017-02-24T11:27:46.741Z,2760
2017-02-24T11:28:56.102Z,2696
2017-02-24T11:30:05.879Z,2380
2017-02-24T11:31:16.065Z,3096
2017-02-24T11:32:25.472Z,2860
2017-02-24T11:33:35.255Z,3920
2017-02-24T11:34:44.596Z,4016
2017-02-24T11:35:54.780Z,3704
2017-02-24T11:37:04.983Z,4180
2017-02-24T11:38:14.363Z,4192
2017-02-24T11:39:24.143Z,3484
2017-02-24T11:40:33.910Z,4128
2017-02-24T11:41:43.691Z,9628
2017-02-24T11:42:53.440Z,8860
2017-02-24T11:44:02.797Z,7628
2017-02-24T11:45:12.141Z,6744
2017-02-24T11:46:22.331Z,8760
2017-02-24T11:47:32.085Z,6940
2017-02-24T11:48:41.830Z,7108
2017-02-24T11:49:51.642Z,6780
2017-02-24T11:51:01.852Z,7736
2017-02-24T11:52:11.598Z,7500
2017-02-24T11:53:21.389Z,5532
2017-02-24T11:54:31.583Z,2412
2017-02-24T11:55:41.403Z,1828
2017-02-24T11:56:51.598Z,1904
2017-02-24T11:58:01.402Z,2480
2017-02-24T11:59:11.591Z,2812
2017-02-24T12:00:21.765Z,3636
2017-02-24T12:01:31.599Z,4476
2017-02-24T12:02:41.352Z,4700
2017-02-24T12:03:50.689Z,4608
2017-02-24T12:05:00.896Z,4196
2017-02-24T12:06:10.646Z,3792
2017-02-24T12:07:20.457Z,2740
2017-02-24T12:08:30.204Z,2224
2017-02-24T12:09:40.403Z,2784
2017-02-24T12:10:51.052Z,3168
2017-02-24T12:12:01.244Z,8124
2017-02-24T12:13:11.491Z,8444
2017-02-24T12:14:21.686Z,9440
2017-02-24T12:15:31.437Z,8588
2017-02-24T12:16:41.201Z,8032
2017-02-24T12:17:51.415Z,7104
2017-02-24T12:19:00.793Z,6944
2017-02-24T12:20:10.114Z,6832
2017-02-24T12:21:19.883Z,6748
2017-02-24T12:22:30.519Z,6712
2017-02-24T12:23:40.725Z,6720
2017-02-24T12:24:50.117Z,6628
2017-02-24T12:25:59.874Z,6596
2017-02-24T12:27:09.627Z,6624
2017-02-24T12:28:19.834Z,6648
2017-02-24T12:29:29.179Z,6916
2017-02-24T12:30:39.012Z,7416
2017-02-24T12:31:49.209Z,7712
2017-02-24T12:32:58.982Z,4712
2017-02-24T12:34:09.188Z,9012
2017-02-24T12:35:19.389Z,8768
2017-02-24T12:36:29.204Z,4964
2017-02-24T12:37:40.265Z,5080
2017-02-24T12:38:50.444Z,10036
2017-02-24T12:39:59.770Z,4728
2017-02-24T12:41:09.134Z,4172
2017-02-24T12:42:18.954Z,7192
2017-02-24T12:43:28.731Z,5368
2017-02-24T12:44:38.510Z,5972
2017-02-24T12:45:47.839Z,9132
2017-02-24T12:46:57.600Z,9024
2017-02-24T12:48:07.845Z,8772
2017-02-24T12:49:17.185Z,10072
2017-02-24T12:50:27.803Z,10268
2017-02-24T12:51:37.129Z,9480
2017-02-24T12:52:47.810Z,8932
2017-02-24T12:53:58.107Z,8904
2017-02-24T12:55:07.896Z,10108
2017-02-24T12:56:17.669Z,10248
2017-02-24T12:57:26.987Z,8328
2017-02-24T12:58:37.928Z,5064
2017-02-24T12:59:48.404Z,5672
2017-02-24T13:00:59.557Z,8800
2017-02-24T13:02:10.614Z,8392
2017-02-24T13:03:22.001Z,7876
2017-02-24T13:04:32.656Z,7140
2017-02-24T13:05:42.749Z,5820
2017-02-24T13:06:54.626Z,5216
2017-02-24T13:08:05.538Z,4692
2017-02-24T13:09:15.450Z,5260
2017-02-24T13:10:25.487Z,5200
2017-02-24T13:11:35.724Z,5140
2017-02-24T13:12:45.498Z,4968
2017-02-24T13:13:54.827Z,5056
2017-02-24T13:15:04.599Z,5260
2017-02-24T13:16:14.798Z,5624
2017-02-24T13:17:24.819Z,5648
2017-02-24T13:18:34.592Z,5200
2017-02-24T13:19:45.225Z,4900
2017-02-24T13:20:54.543Z,4796
2017-02-24T13:22:04.508Z,4720
2017-02-24T13:23:14.389Z,4692
2017-02-24T13:24:23.706Z,4708
2017-02-24T13:25:33.019Z,1556
2017-02-24T13:26:42.340Z,4796
2017-02-24T13:27:51.662Z,2000
2017-02-24T13:29:01.903Z,5652
2017-02-24T13:30:11.241Z,3796
2017-02-24T13:31:21.003Z,7320
2017-02-24T13:32:31.197Z,6976
2017-02-24T13:33:41.383Z,8916
2017-02-24T13:34:50.901Z,8596
2017-02-24T13:36:00.222Z,7256
2017-02-24T13:37:09.979Z,5944
2017-02-24T13:38:20.628Z,5248
2017-02-24T13:39:30.406Z,5076
2017-02-24T13:40:40.227Z,2936
2017-02-24T13:41:49.982Z,6124
2017-02-24T13:42:59.761Z,7224
2017-02-24T13:44:09.542Z,7148
2017-02-24T13:45:19.227Z,7732
2017-02-24T13:46:29.539Z,7172
2017-02-24T13:47:39.364Z,6944
2017-02-24T13:48:49.620Z,6940
2017-02-24T13:49:59.387Z,6540
2017-02-24T13:51:09.169Z,6412
2017-02-24T13:52:18.540Z,3792
2017-02-24T13:53:28.819Z,4648
2017-02-24T13:54:38.393Z,3936
2017-02-24T13:55:47.725Z,3376
2017-02-24T13:56:57.983Z,3292
2017-02-24T13:58:07.963Z,1488
2017-02-24T13:59:17.717Z,1128
2017-02-24T14:00:27.474Z,1220
2017-02-24T14:01:36.794Z,1440
2017-02-24T14:02:46.569Z,1888
2017-02-24T14:03:56.666Z,1560
2017-02-24T14:05:07.202Z,1112
2017-02-24T14:06:17.864Z,1276
2017-02-24T14:07:28.058Z,1024
2017-02-24T14:08:37.818Z,980
2017-02-24T14:09:47.620Z,932
2017-02-24T14:10:56.999Z,952
2017-02-24T14:12:07.380Z,992
2017-02-24T14:13:17.134Z,1116
2017-02-24T14:14:26.909Z,1092
2017-02-24T14:15:36.298Z,1132
2017-02-24T14:16:46.483Z,1116
2017-02-24T14:17:56.243Z,1088
2017-02-24T14:19:05.988Z,1028
2017-02-24T14:20:15.729Z,952
2017-02-24T14:21:25.527Z,996
2017-02-24T14:22:35.285Z,952
2017-02-24T14:23:45.053Z,912
2017-02-24T14:24:54.370Z,932
2017-02-24T14:26:05.033Z,924
2017-02-24T14:27:14.836Z,948
2017-02-24T14:28:24.595Z,944
2017-02-24T14:29:33.944Z,936
2017-02-24T14:30:43.264Z,932
2017-02-24T14:31:53.023Z,924
2017-02-24T14:33:02.824Z,924
2017-02-24T14:34:12.577Z,928
2017-02-24T14:35:22.770Z,976
2017-02-24T14:36:32.099Z,1108
2017-02-24T14:37:41.849Z,1100
2017-02-24T14:38:52.558Z,992
2017-02-24T14:40:01.899Z,960
2017-02-24T14:41:11.667Z,960
2017-02-24T14:42:21.005Z,964
2017-02-24T14:43:30.770Z,1092
2017-02-24T14:44:41.008Z,1120
2017-02-24T14:45:50.329Z,1180
2017-02-24T14:47:00.517Z,1104
2017-02-24T14:48:10.736Z,1072
2017-02-24T14:49:20.517Z,1340
2017-02-24T14:50:30.761Z,1524
2017-02-24T14:51:41.391Z,1788
2017-02-24T14:52:51.588Z,1992
2017-02-24T14:54:00.902Z,2276
2017-02-24T14:55:10.651Z,2900
2017-02-24T14:56:20.020Z,2676
2017-02-24T14:57:30.196Z,2232
2017-02-24T14:58:40.378Z,2288
2017-02-24T14:59:50.132Z,2144
2017-02-24T15:00:59.897Z,1808
2017-02-24T15:02:10.141Z,1716
2017-02-24T15:03:19.468Z,1432
2017-02-24T15:04:28.805Z,1252
2017-02-24T15:05:38.133Z,1060
2017-02-24T15:06:47.455Z,984
2017-02-24T15:07:56.827Z,1004
2017-02-24T15:09:06.589Z,1036
2017-02-24T15:10:16.382Z,1092
2017-02-24T15:11:26.584Z,1224
2017-02-24T15:12:36.853Z,1356
2017-02-24T15:13:46.694Z,1492
2017-02-24T15:14:56.467Z,1596
2017-02-24T15:16:05.776Z,1732
2017-02-24T15:17:15.601Z,1852
2017-02-24T15:18:25.795Z,2036
2017-02-24T15:19:35.596Z,2356
2017-02-24T15:20:45.348Z,2512
2017-02-24T15:21:55.989Z,2344
2017-02-24T15:23:06.168Z,2084
2017-02-24T15:24:15.501Z,1632
2017-02-24T15:25:25.313Z,1220
2017-02-24T15:26:35.935Z,1028
2017-02-24T15:27:45.257Z,1012
2017-02-24T15:28:55.020Z,1092
2017-02-24T15:30:04.771Z,1168
2017-02-24T15:31:14.636Z,1120
2017-02-24T15:32:24.825Z,952
2017-02-24T15:33:35.021Z,844
2017-02-24T15:34:45.655Z,824
2017-02-24T15:35:54.973Z,840
2017-02-24T15:37:04.802Z,828
2017-02-24T15:38:14.566Z,844
2017-02-24T15:39:25.215Z,844
2017-02-24T15:40:34.526Z,904
2017-02-24T15:41:44.746Z,920
2017-02-24T15:42:54.656Z,816
2017-02-24T15:44:04.888Z,748
2017-02-24T15:45:15.085Z,716
2017-02-24T15:46:25.270Z,692
2017-02-24T15:47:35.045Z,720
2017-02-24T15:48:45.290Z,796
2017-02-24T15:49:55.085Z,828
2017-02-24T15:51:05.708Z,784
2017-02-24T15:52:15.096Z,720
2017-02-24T15:53:26.181Z,692
2017-02-24T15:54:36.852Z,752
2017-02-24T15:55:47.500Z,864
2017-02-24T15:56:57.289Z,940
2017-02-24T15:58:07.046Z,1004
2017-02-24T15:59:16.797Z,1080
2017-02-24T16:00:26.614Z,984
2017-02-24T16:01:36.811Z,808
2017-02-24T16:02:46.567Z,708
2017-02-24T16:03:55.907Z,624
2017-02-24T16:05:06.085Z,568
2017-02-24T16:06:15.928Z,540
2017-02-24T16:07:26.117Z,504
2017-02-24T16:08:35.434Z,464
2017-02-24T16:09:45.619Z,444
2017-02-24T16:10:55.837Z,424
2017-02-24T16:12:06.078Z,432